Have a Safe July 4th! 

Flight Track Log - Related Links

Times and Time Zones

All times are in EDT time to prevent confusion due to time zone crossing. See the AMF1326 flight status page for this flight to view local times or setup timezone preferences in your user account.

Time Position Orientation Groundspeed Altitude Reporting Facility
EDT Latitude Longitude Course Direction KTS MPH feet Rate Location/Type
Thu 05:38:17 AM 39.0500 -84.6667 21° North 135 155 1,200  Level Cincinnati TRACON
Thu 05:39:05 AM 39.0833 -84.6500 21° North 164 189 2,400 1,611 Climbing Cincinnati TRACON
Thu 05:40:05 AM 39.1000 -84.6000 67° East 161 185 4,100 1,550 Climbing Cincinnati TRACON
Thu 05:41:05 AM 39.0833 -84.5500 113° Southeast 179 206 5,500 1,398 Climbing Cincinnati TRACON
Thu 05:42:18 AM 39.0444 -84.4939 132° Southeast 180 207 7,200 1,308 Climbing Indianapolis Center
Thu 05:43:18 AM 39.0136 -84.4397 126° Southeast 185 213 8,400 1,100 Climbing Indianapolis Center
Thu 05:44:18 AM 38.9803 -84.3828 127° Southeast 196 226 9,400 1,041 Climbing Indianapolis Center
Thu 05:45:19 AM 38.9475 -84.3208 124° Southeast 205 236 10,500 1,041 Climbing Indianapolis Center
Thu 05:46:19 AM 38.9308 -84.2486 107° East 210 242 11,500 992 Climbing Indianapolis Center
Thu 05:47:20 AM 38.9147 -84.1747 106° East 211 243 12,500 942 Climbing Indianapolis Center
Thu 05:48:20 AM 38.8969 -84.1000 107° East 215 247 13,400 942 Climbing Indianapolis Center
Thu 05:49:21 AM 38.9117 -84.0256 76° East 211 243 14,400 942 Climbing Indianapolis Center
Thu 05:50:21 AM 38.9250 -83.9539 77° East 207 238 15,300 744 Climbing Indianapolis Center
Thu 05:51:22 AM 38.9369 -83.8783 78° East 213 245 15,900 694 Climbing Indianapolis Center
Thu 05:52:22 AM 38.9464 -83.7994 81° East 220 253 16,700 694 Climbing Indianapolis Center
Thu 05:53:23 AM 38.9586 -83.7219 79° East 220 253 17,300 595 Climbing Indianapolis Center
Thu 05:54:23 AM 38.9733 -83.6433 76° East 223 257 17,900 595 Climbing Indianapolis Center
Thu 05:55:24 AM 38.9886 -83.5653 76° East 223 257 18,500 541 Climbing Indianapolis Center
Thu 05:56:25 AM 38.9989 -83.4850 81° East 226 260 19,000 248 Climbing Indianapolis Center
Thu 05:57:25 AM 39.0119 -83.4017 79° East 236 272 19,000  Level Indianapolis Center
Thu 05:58:26 AM 39.0261 -83.3125 78° East 250 288 19,000  Level Indianapolis Center
Thu 05:59:26 AM 39.0439 -83.2236 76° East 255 293 19,000  Level Indianapolis Center
Thu 06:00:27 AM 39.0625 -83.1336 75° East 257 296 19,000  Level Indianapolis Center
Thu 06:01:27 AM 39.0822 -83.0425 74° East 263 303 19,000  Level Indianapolis Center
Thu 06:02:28 AM 39.1003 -82.9528 75° East 259 298 19,000  Level Indianapolis Center
Thu 06:03:28 AM 39.1197 -82.8614 75° East 262 302 19,000  Level Indianapolis Center
Thu 06:04:29 AM 39.1381 -82.7697 76° East 262 302 19,000  Level Indianapolis Center
Thu 06:05:29 AM 39.1575 -82.6783 75° East 264 304 19,000  Level Indianapolis Center
Thu 06:06:30 AM 39.1772 -82.5856 75° East 269 310 19,000  Level Indianapolis Center
Thu 06:07:30 AM 39.1981 -82.4914 74° East 267 307 19,000  Level Indianapolis Center
Thu 06:08:31 AM 39.2158 -82.4017 76° East 265 305 19,000  Level Indianapolis Center
Thu 06:09:32 AM 39.2361 -82.3083 74° East 269 310 19,000  Level Indianapolis Center
Thu 06:10:32 AM 39.2567 -82.2153 74° East 269 310 19,000  Level Indianapolis Center
Thu 06:11:33 AM 39.2756 -82.1239 75° East 265 305 19,000  Level Indianapolis Center
Thu 06:12:33 AM 39.2961 -82.0317 74° East 266 306 19,000  Level Indianapolis Center
Thu 06:13:34 AM 39.3164 -81.9400 74° East 266 306 19,000  Level Indianapolis Center
Thu 06:14:34 AM 39.3378 -81.8469 73° East 269 310 19,000  Level Indianapolis Center
Thu 06:15:35 AM 39.3589 -81.7544 74° East 269 310 19,000  Level Indianapolis Center
Thu 06:16:35 AM 39.3806 -81.6628 73° East 266 306 19,000  Level Indianapolis Center
Thu 06:17:36 AM 39.4022 -81.5694 73° East 269 310 19,000  Level Indianapolis Center
Thu 06:18:37 AM 39.4233 -81.4772 73° East 267 307 19,000  Level Indianapolis Center
Thu 06:19:37 AM 39.4431 -81.3836 75° East 269 310 19,000  Level Indianapolis Center
Thu 06:20:38 AM 39.4786 -81.3000 61° Northeast 268 308 19,000  Level Indianapolis Center
Thu 06:21:38 AM 39.5225 -81.2250 53° Northeast 264 304 19,000  Level Indianapolis Center
Thu 06:22:39 AM 39.5594 -81.1442 59° Northeast 263 303 19,000  Level Indianapolis Center
Thu 06:23:40 AM 39.5994 -81.0636 57° Northeast 262 302 19,000  Level Indianapolis Center
Thu 06:24:40 AM 39.6378 -80.9828 58° Northeast 263 303 19,000  Level Indianapolis Center
Thu 06:25:41 AM 39.6756 -80.9028 58° Northeast 260 299 19,000  Level Indianapolis Center
Thu 06:26:41 AM 39.7139 -80.8206 59° Northeast 265 305 19,000  Level Indianapolis Center
Thu 06:27:42 AM 39.7519 -80.7389 59° Northeast 265 305 19,000  Level Indianapolis Center
Thu 06:28:43 AM 39.7933 -80.6608 55° Northeast 262 302 19,000  Level Indianapolis Center
Thu 06:29:44 AM 39.8317 -80.5800 58° Northeast 262 302 19,000  Level Indianapolis Center
Thu 06:30:44 AM 39.8719 -80.5006 57° Northeast 263 303 19,000  Level Indianapolis Center
Thu 06:31:45 AM 39.9103 -80.4186 59° Northeast 264 304 19,000  Level Indianapolis Center
Thu 06:33:08 AM 39.9772 -80.2958 55° Northeast 257 296 19,000  Level Cleveland Center
Thu 06:34:08 AM 40.0122 -80.2092 62° Northeast 257 296 19,000  Level Cleveland Center
Thu 06:35:08 AM 40.0433 -80.1247 64° Northeast 257 296 19,000  Level Cleveland Center
Thu 06:36:08 AM 40.0783 -80.0378 62° Northeast 252 290 19,000  Level Cleveland Center
Thu 06:37:08 AM 40.1114 -79.9506 64° Northeast 258 297 19,000  Level Cleveland Center
Thu 06:38:08 AM 40.1442 -79.8661 63° Northeast 263 303 19,000  Level Cleveland Center
Thu 06:39:08 AM 40.1769 -79.7789 64° Northeast 263 303 19,000  Level Cleveland Center
Thu 06:40:08 AM 40.2097 -79.6942 63° Northeast 263 303 19,000  Level Cleveland Center
Thu 06:41:08 AM 40.2444 -79.6067 63° Northeast 263 303 19,000  Level Cleveland Center
Thu 06:42:08 AM 40.2769 -79.5217 63° Northeast 263 303 19,000  Level Cleveland Center
Thu 06:43:08 AM 40.3094 -79.4314 65° Northeast 263 303 19,000  Level Cleveland Center
Thu 06:44:08 AM 40.3439 -79.3464 62° Northeast 263 303 19,000  Level Cleveland Center
Thu 06:45:08 AM 40.3742 -79.2614 65° Northeast 263 303 19,000  Level Cleveland Center
Thu 06:46:08 AM 40.4108 -79.1761 61° Northeast 263 303 19,000  Level Cleveland Center
Thu 06:47:08 AM 40.4431 -79.0908 64° Northeast 263 303 19,000  Level Cleveland Center
Thu 06:48:08 AM 40.4775 -79.0053 62° Northeast 263 303 19,000  Level Cleveland Center
Thu 06:49:08 AM 40.5117 -78.9200 62° Northeast 263 303 19,000  Level Cleveland Center
Thu 06:50:08 AM 40.5458 -78.8344 62° Northeast 258 297 19,000  Level Cleveland Center
Thu 06:51:08 AM 40.5781 -78.7597 60° Northeast 258 297 19,000  Level Cleveland Center
Thu 06:52:08 AM 40.6119 -78.6739 62° Northeast 263 303 19,000  Level Cleveland Center
Thu 06:53:08 AM 40.6481 -78.5881 61° Northeast 263 303 19,000  Level Cleveland Center
Thu 06:55:18 AM 40.7261 -78.3956 62° Northeast 268 308 19,000  Level New York Center
Thu 06:56:18 AM 40.7483 -78.3131 70° East 268 308 19,000  Level New York Center
Thu 06:57:21 AM 40.7686 -78.2219 74° East 263 303 19,000  Level New York Center
Thu 06:58:18 AM 40.7911 -78.1283 72° East 263 303 19,000  Level New York Center
Thu 06:59:19 AM 40.8133 -78.0375 72° East 258 297 19,000 -295 Level New York Center
Thu 07:00:20 AM 40.8339 -77.9383 75° East 263 303 18,400 -559 Descending New York Center
Thu 07:01:17 AM 40.8567 -77.8389 73° East 274 315 17,900 -504 Descending New York Center
Thu 07:02:19 AM 40.8794 -77.7344 74° East 280 322 17,400 -443 Descending New York Center
Thu 07:03:19 AM 40.9042 -77.6353 72° East 280 322 17,000 -203 Descending New York Center
Thu 07:04:17 AM 40.9306 -77.5389 70° East 280 322 17,000  Level New York Center
Thu 07:05:18 AM 40.9547 -77.4397 72° East 280 322 17,000  Level New York Center
Thu 07:06:19 AM 40.9767 -77.3456 73° East 280 322 17,000  Level New York Center
Thu 07:07:17 AM 40.9986 -77.2514 73° East 280 322 17,000 -248 Level New York Center
Thu 07:08:20 AM 41.0225 -77.1547 72° East 280 322 16,500 -934 Descending New York Center
Thu 07:09:19 AM 41.0450 -77.0494 74° East 285 328 15,100 -1,261 Descending New York Center
Thu 07:10:19 AM 41.0569 -76.9378 82° East 298 343 14,000 -893 Descending New York Center
Thu 07:11:20 AM 41.0708 -76.8344 80° East 298 343 13,300 -1,160 Descending New York Center
Thu 07:12:18 AM 41.0822 -76.7281 82° East 291 335 11,700 -1,678 Descending New York Center
Thu 07:13:18 AM 41.0967 -76.6081 81° East 297 342 10,000 -1,350 Descending New York Center
Thu 07:14:18 AM 41.1114 -76.5183 78° East 285 328 9,000 -496 Descending New York Center
Thu 07:15:19 AM 41.1269 -76.4150 79° East 268 308 9,000  Level New York Center
Thu 07:16:19 AM 41.1436 -76.3228 76° East 262 302 9,000 4,500 Level New York Center
Thu 07:17:19 AM 41.1628 -76.2278 75° East 257 296 18,000 -1,041 Climbing New York Center
Thu 07:18:20 AM 41.1811 -76.1467 73° East 257 296 6,900  Descending New York Center
Thu 07:19:18 AM 41.1975 -76.0569 76° East 257 296 18,000 -1,462 Climbing New York Center
Thu 07:20:19 AM 41.2158 -75.9700 74° East 236 272 4,000 -6,934 Descending New York Center
Thu 07:21:20 AM 41.2317 -75.8942 74° East 215 247 3,900 7,059 Descending New York Center
Thu 07:22:18 AM 41.2600 -75.8217 63° Northeast 215 247 18,000 -857 Climbing New York Center
Thu 07:23:19 AM 41.2869 -75.7714 54° Northeast 193 222 2,200 -8,164 Descending New York Center
Thu 07:24:20 AM 41.3108 -75.7481 36° Northeast 162 186 1,400 7,900 Descending New York Center
Thu 07:25:19 AM 41.3406 -75.6842 58° Northeast 162 186 18,000 8,370 Climbing New York Center
Thu 07:26:19 AM 41.3694 -75.6392 49° Northeast 162 186 18,000  Level New York Center
Thu 07:27:20 AM 41.3967 -75.5914 53° Northeast 162 186 18,000  Level New York Center
Thu 07:29:00 AM 41.3333 -75.7167 243° Southwest  Level FlightAware Approximate
Thu 07:36:00 AM 41.3385 -75.7234 243° Southwest  Level Estimated
Thu 07:37:00 AM 41.3333 -75.7167 243° Southwest  Level FlightAware Approximate
Thu 07:38:00 AM 41.3385 -75.7234 243° Southwest  Level Estimated
Thu 07:39:00 AM 41.3333 -75.7167 243° Southwest  Level FlightAware Approximate
Thu 07:40:00 AM 41.3385 -75.7234 243° Southwest  Level Estimated
Thu 07:41:00 AM 41.3333 -75.7167 243° Southwest  Level FlightAware Approximate
Thu 07:42:00 AM 41.3385 -75.7234 243° Southwest  Level Estimated
Thu 07:43:00 AM 41.3333 -75.7167 243° Southwest  Level FlightAware Approximate
Thu 07:44:00 AM 41.3385 -75.7234 243° Southwest  Level Estimated
Thu 07:45:00 AM 41.3333 -75.7167 243° Southwest  Level FlightAware Approximate

Login

Don't have an account? Register now (free) for customized features, flight alerts, and more!